createdAt,value
2022-10-17T00:00:52.391Z,99.90
2022-10-17T00:03:20.095Z,99.90
2022-10-17T00:05:49.111Z,99.90
2022-10-17T00:08:17.966Z,99.90
2022-10-17T00:10:45.621Z,99.90
2022-10-17T00:13:13.327Z,99.90
2022-10-17T00:15:45.190Z,99.90
2022-10-17T00:18:12.347Z,99.90
2022-10-17T00:20:39.714Z,99.90
2022-10-17T00:23:06.813Z,99.90
2022-10-17T00:25:34.080Z,99.90
2022-10-17T00:28:01.332Z,99.90
2022-10-17T00:30:28.536Z,99.90
2022-10-17T00:32:55.768Z,99.90
2022-10-17T00:35:22.994Z,99.90
2022-10-17T00:37:50.369Z,99.90
2022-10-17T00:40:17.611Z,99.90
2022-10-17T00:42:44.839Z,99.90
2022-10-17T00:45:25.758Z,99.90
2022-10-17T00:47:59.012Z,99.90
2022-10-17T00:50:27.304Z,99.90
2022-10-17T00:52:57.158Z,99.90
2022-10-17T00:55:31.576Z,99.90
2022-10-17T00:58:02.221Z,99.90
2022-10-17T01:00:29.594Z,99.90
2022-10-17T01:02:56.729Z,99.90
2022-10-17T01:05:24.048Z,99.90
2022-10-17T01:07:53.512Z,99.90
2022-10-17T01:13:04.921Z,99.90
2022-10-17T01:15:46.736Z,99.90
2022-10-17T01:18:20.485Z,99.90
2022-10-17T01:21:26.018Z,99.90
2022-10-17T01:24:40.927Z,99.90
2022-10-17T01:27:30.545Z,99.90
2022-10-17T01:30:09.803Z,99.90
2022-10-17T01:32:37.008Z,99.90
2022-10-17T01:35:38.005Z,99.90
2022-10-17T01:38:13.374Z,99.90
2022-10-17T01:40:51.363Z,99.90
2022-10-17T01:43:53.657Z,99.90
2022-10-17T01:46:40.611Z,99.90
2022-10-17T01:49:10.488Z,99.90
2022-10-17T01:51:45.543Z,99.90
2022-10-17T01:54:15.806Z,99.90
2022-10-17T01:56:44.969Z,99.90
2022-10-17T01:59:20.192Z,99.90
2022-10-17T02:01:51.500Z,99.90
2022-10-17T02:04:19.300Z,99.90
2022-10-17T02:06:46.570Z,99.90
2022-10-17T02:09:25.077Z,99.90
2022-10-17T02:12:25.999Z,99.90
2022-10-17T02:15:26.584Z,99.90
2022-10-17T02:18:11.797Z,99.90
2022-10-17T02:21:02.961Z,99.90
2022-10-17T02:24:00.908Z,99.90
2022-10-17T02:26:44.851Z,99.90
2022-10-17T02:29:21.036Z,99.90
2022-10-17T02:31:54.762Z,99.90
2022-10-17T02:34:50.632Z,99.90
2022-10-17T02:37:22.081Z,99.90
2022-10-17T02:39:52.219Z,99.90
2022-10-17T02:42:21.570Z,99.90
2022-10-17T02:44:49.423Z,99.90
2022-10-17T02:47:35.884Z,99.90
2022-10-17T02:50:03.508Z,99.90
2022-10-17T02:52:52.783Z,99.90
2022-10-17T02:55:36.454Z,99.90
2022-10-17T02:58:09.120Z,99.90
2022-10-17T03:00:38.677Z,99.90
2022-10-17T03:03:37.326Z,99.90
2022-10-17T03:06:04.663Z,99.90
2022-10-17T03:08:31.974Z,99.90
2022-10-17T03:10:59.235Z,99.90
2022-10-17T03:13:26.492Z,99.90
2022-10-17T03:15:53.687Z,99.90
2022-10-17T03:18:20.849Z,99.90
2022-10-17T03:20:48.100Z,99.90
2022-10-17T03:23:15.300Z,99.90
2022-10-17T03:25:42.665Z,99.90
2022-10-17T03:28:11.820Z,99.90
2022-10-17T03:30:39.596Z,99.90
2022-10-17T03:33:06.869Z,99.90
2022-10-17T03:35:34.061Z,99.90
2022-10-17T03:38:01.376Z,99.90
2022-10-17T03:40:28.530Z,99.90
2022-10-17T03:42:55.773Z,99.90
2022-10-17T03:45:22.982Z,99.90
2022-10-17T03:47:50.235Z,99.90
2022-10-17T03:50:17.489Z,99.90
2022-10-17T03:52:48.671Z,99.90
2022-10-17T03:55:16.746Z,99.90
2022-10-17T03:57:45.503Z,99.90
2022-10-17T04:00:13.496Z,99.90
2022-10-17T04:02:40.664Z,99.90
2022-10-17T04:05:08.491Z,99.90
2022-10-17T04:07:37.470Z,99.90
2022-10-17T04:10:06.038Z,99.90
2022-10-17T04:12:33.233Z,99.90
2022-10-17T04:15:00.420Z,99.90
2022-10-17T04:17:27.709Z,99.90
2022-10-17T04:19:54.859Z,99.90
2022-10-17T04:22:22.070Z,99.90
2022-10-17T04:24:49.233Z,99.90
2022-10-17T04:27:17.983Z,99.90
2022-10-17T04:29:45.166Z,99.90
2022-10-17T04:32:12.380Z,99.90
2022-10-17T04:34:39.632Z,99.90
2022-10-17T04:37:06.764Z,99.90
2022-10-17T04:39:33.991Z,99.90
2022-10-17T04:42:01.116Z,99.90
2022-10-17T04:44:31.084Z,99.90
2022-10-17T04:46:58.252Z,99.90
2022-10-17T04:49:25.403Z,99.90
2022-10-17T04:51:52.596Z,99.90
2022-10-17T04:54:19.722Z,99.90
2022-10-17T04:56:47.526Z,99.90
2022-10-17T04:59:14.813Z,99.90
2022-10-17T05:01:41.991Z,99.90
2022-10-17T05:04:09.337Z,99.90
2022-10-17T05:06:38.074Z,99.90
2022-10-17T05:09:05.322Z,99.90
2022-10-17T05:11:32.522Z,99.90
2022-10-17T05:14:01.699Z,99.90
2022-10-17T05:16:31.063Z,99.90
2022-10-17T05:18:59.724Z,99.90
2022-10-17T05:21:28.474Z,99.90
2022-10-17T05:23:56.091Z,99.90
2022-10-17T05:26:24.232Z,99.90
2022-10-17T05:28:52.753Z,99.90
2022-10-17T05:31:20.123Z,99.90
2022-10-17T05:33:47.320Z,99.90
2022-10-17T05:36:14.604Z,99.90
2022-10-17T05:38:41.862Z,99.90
2022-10-17T05:41:10.661Z,99.90
2022-10-17T05:43:37.830Z,99.90
2022-10-17T05:46:07.894Z,99.90
2022-10-17T05:48:35.424Z,99.90
2022-10-17T05:51:05.665Z,99.90
2022-10-17T05:53:34.755Z,99.90
2022-10-17T05:56:04.522Z,99.90
2022-10-17T05:58:49.253Z,99.90
2022-10-17T06:01:18.088Z,99.90
2022-10-17T06:03:45.454Z,99.90
2022-10-17T06:06:14.647Z,99.90
2022-10-17T06:08:42.179Z,99.90
2022-10-17T06:11:10.513Z,99.90
2022-10-17T06:13:39.268Z,99.90
2022-10-17T06:16:06.975Z,99.90
2022-10-17T06:18:34.322Z,99.90
2022-10-17T06:21:06.297Z,99.90
2022-10-17T06:23:33.959Z,99.90
2022-10-17T06:26:02.648Z,99.90
2022-10-17T06:28:30.277Z,99.90
2022-10-17T06:30:57.852Z,99.90
2022-10-17T06:33:25.275Z,99.90
2022-10-17T06:35:56.493Z,99.90
2022-10-17T06:38:23.751Z,99.90
2022-10-17T06:40:51.179Z,99.90
2022-10-17T06:43:18.455Z,99.90
2022-10-17T06:45:47.645Z,99.90
2022-10-17T06:48:16.581Z,99.90
2022-10-17T06:50:43.733Z,99.90
2022-10-17T06:53:10.892Z,99.90
2022-10-17T06:55:38.140Z,99.90
2022-10-17T06:58:05.291Z,99.90
2022-10-17T07:00:32.652Z,99.90
2022-10-17T07:02:59.858Z,99.90
2022-10-17T07:05:27.031Z,99.90
2022-10-17T07:07:54.319Z,99.90
2022-10-17T07:10:21.640Z,99.90
2022-10-17T07:12:48.821Z,99.90
2022-10-17T07:15:16.155Z,99.90
2022-10-17T07:17:43.392Z,99.90
2022-10-17T07:20:11.106Z,99.90
2022-10-17T07:22:38.322Z,99.90
2022-10-17T07:25:05.999Z,99.90
2022-10-17T07:27:33.328Z,99.90
2022-10-17T07:30:00.499Z,99.90
2022-10-17T07:32:27.717Z,99.90
2022-10-17T07:34:54.838Z,99.90
2022-10-17T07:37:22.011Z,99.90
2022-10-17T07:39:49.587Z,99.90
2022-10-17T07:42:16.800Z,99.90
2022-10-17T07:44:46.359Z,99.90
2022-10-17T07:47:13.630Z,99.90
2022-10-17T07:49:42.746Z,99.90
2022-10-17T07:52:14.385Z,99.90
2022-10-17T07:54:41.657Z,99.90
2022-10-17T07:57:09.163Z,99.90
2022-10-17T07:59:38.417Z,99.90
2022-10-17T08:02:08.209Z,99.90
2022-10-17T08:04:36.645Z,99.90
2022-10-17T08:07:19.697Z,99.90
2022-10-17T08:09:49.931Z,99.90
2022-10-17T08:12:17.236Z,99.90
2022-10-17T08:14:44.893Z,99.90
2022-10-17T08:17:12.162Z,99.90
2022-10-17T08:19:40.674Z,99.90
2022-10-17T08:22:08.930Z,99.90
2022-10-17T08:24:36.320Z,99.90
2022-10-17T08:27:05.050Z,99.90
2022-10-17T08:29:33.179Z,99.90
2022-10-17T08:32:01.934Z,99.90
2022-10-17T08:34:30.158Z,99.90
2022-10-17T08:36:57.383Z,99.90
2022-10-17T08:39:24.721Z,99.90
2022-10-17T08:41:54.633Z,99.90
2022-10-17T08:44:44.931Z,99.90
2022-10-17T08:47:19.955Z,99.90
2022-10-17T08:49:58.520Z,99.70
2022-10-17T08:52:49.843Z,99.90
2022-10-17T08:55:45.639Z,96.80
2022-10-17T08:58:26.500Z,99.30
2022-10-17T09:01:00.291Z,99.90
2022-10-17T09:04:04.968Z,99.80
2022-10-17T09:06:35.359Z,95.80
2022-10-17T09:09:39.440Z,95.50
2022-10-17T09:12:35.960Z,95.10
2022-10-17T09:15:06.247Z,94.90
2022-10-17T09:18:02.343Z,96.30
2022-10-17T09:20:38.167Z,92.40
2022-10-17T09:23:28.014Z,92.60
2022-10-17T09:25:58.427Z,91.90
2022-10-17T09:28:33.852Z,90.90
2022-10-17T09:31:09.880Z,90.60
2022-10-17T09:34:00.466Z,87.10
2022-10-17T09:36:36.181Z,85.30
2022-10-17T09:39:18.036Z,84.80
2022-10-17T09:41:48.879Z,84.80
2022-10-17T09:44:25.374Z,79.90
2022-10-17T09:46:55.471Z,81.20
2022-10-17T09:49:38.674Z,81.70
2022-10-17T09:52:12.270Z,82.30
2022-10-17T09:54:48.809Z,79.40
2022-10-17T09:57:18.030Z,81.10
2022-10-17T09:59:46.360Z,83.40
2022-10-17T10:02:13.617Z,82.30
2022-10-17T10:05:05.158Z,82.70
2022-10-17T10:07:39.055Z,78.20
2022-10-17T10:10:26.213Z,77.30
2022-10-17T10:13:20.610Z,76.90
2022-10-17T10:15:50.387Z,76.90
2022-10-17T10:18:33.324Z,76.20
2022-10-17T10:21:06.900Z,76.20
2022-10-17T10:23:35.233Z,75.60
2022-10-17T10:26:21.063Z,74.70
2022-10-17T10:29:29.075Z,73.90
2022-10-17T10:31:57.495Z,73.80
2022-10-17T10:34:29.112Z,74.10
2022-10-17T10:37:20.494Z,76.10
2022-10-17T10:39:59.500Z,76.10
2022-10-17T10:42:31.800Z,73.60
2022-10-17T10:45:47.101Z,71.30
2022-10-17T10:48:26.323Z,71.40
2022-10-17T10:51:02.049Z,73.10
2022-10-17T10:53:53.682Z,72.20
2022-10-17T10:56:22.520Z,73.50
2022-10-17T10:58:53.167Z,71.70
2022-10-17T11:01:29.679Z,70.90
2022-10-17T11:04:26.231Z,72.20
2022-10-17T11:07:00.528Z,72.60
2022-10-17T11:09:52.304Z,72.80
2022-10-17T11:12:47.836Z,73.60
2022-10-17T11:15:56.487Z,71.10
2022-10-17T11:18:23.610Z,71.30
2022-10-17T11:21:21.259Z,72.00
2022-10-17T11:24:08.338Z,72.30
2022-10-17T11:26:43.421Z,70.90
2022-10-17T11:29:12.816Z,69.20
2022-10-17T11:31:45.419Z,72.50
2022-10-17T11:34:26.442Z,71.00
2022-10-17T11:37:00.115Z,70.90
2022-10-17T11:39:42.400Z,70.70
2022-10-17T11:42:21.237Z,69.80
2022-10-17T11:44:52.788Z,69.50
2022-10-17T11:47:43.497Z,69.20
2022-10-17T11:53:14.644Z,68.40
2022-10-17T11:55:43.388Z,69.60
2022-10-17T12:01:00.127Z,70.60
2022-10-17T12:03:46.911Z,70.90
2022-10-17T12:06:35.885Z,71.00
2022-10-17T12:09:47.054Z,71.80
2022-10-17T12:12:28.722Z,71.10
2022-10-17T12:15:25.520Z,70.50
2022-10-17T12:18:03.361Z,70.20
2022-10-17T12:20:33.898Z,70.00
2022-10-17T12:23:13.435Z,70.60
2022-10-17T12:25:55.969Z,71.00
2022-10-17T12:28:47.664Z,71.20
2022-10-17T12:31:17.779Z,70.00
2022-10-17T12:34:00.174Z,69.50
2022-10-17T12:36:27.376Z,70.40
2022-10-17T12:39:11.841Z,70.50
2022-10-17T12:41:38.982Z,70.40
2022-10-17T12:44:21.568Z,68.50
2022-10-17T12:47:10.151Z,65.90
2022-10-17T12:49:38.667Z,68.20
2022-10-17T12:52:23.108Z,67.30
2022-10-17T12:55:14.291Z,68.40
2022-10-17T12:57:57.053Z,69.40
2022-10-17T13:00:49.824Z,69.20
2022-10-17T13:03:32.904Z,68.50
2022-10-17T13:06:03.485Z,69.40
2022-10-17T13:08:33.177Z,69.70
2022-10-17T13:11:01.489Z,69.30
2022-10-17T13:13:50.564Z,68.90
2022-10-17T13:16:32.479Z,68.60
2022-10-17T13:19:01.003Z,68.90
2022-10-17T13:21:29.146Z,69.30
2022-10-17T13:23:56.935Z,70.20
2022-10-17T13:26:28.948Z,71.10
2022-10-17T13:29:29.983Z,70.70
2022-10-17T13:32:01.586Z,71.10
2022-10-17T13:34:29.676Z,71.00
2022-10-17T13:37:10.478Z,71.80
2022-10-17T13:39:55.805Z,71.80
2022-10-17T13:42:31.399Z,72.60
2022-10-17T13:44:59.886Z,72.60
2022-10-17T13:47:36.807Z,72.80
2022-10-17T13:50:12.737Z,73.00
2022-10-17T13:52:44.540Z,72.50
2022-10-17T13:55:20.476Z,72.70
2022-10-17T13:57:47.778Z,73.00
2022-10-17T14:00:23.275Z,73.00
2022-10-17T14:02:50.520Z,73.60
2022-10-17T14:05:20.518Z,73.90
2022-10-17T14:10:41.460Z,73.90
2022-10-17T14:13:19.522Z,74.30
2022-10-17T14:15:47.226Z,75.50
2022-10-17T14:18:19.701Z,75.40
2022-10-17T14:21:29.209Z,75.40
2022-10-17T14:23:44.606Z,75.50
2022-10-17T14:26:22.747Z,75.80
2022-10-17T14:29:36.407Z,75.80
2022-10-17T14:32:11.004Z,76.00
2022-10-17T14:34:40.839Z,76.50
2022-10-17T14:37:28.470Z,77.20
2022-10-17T14:39:55.965Z,77.70
2022-10-17T14:42:23.823Z,78.30
2022-10-17T14:44:53.279Z,78.90
2022-10-17T14:47:42.576Z,79.20
2022-10-17T14:50:12.934Z,79.70
2022-10-17T14:52:41.070Z,80.30
2022-10-17T14:55:29.781Z,80.70
2022-10-17T14:57:57.118Z,81.30
2022-10-17T15:00:24.981Z,81.90
2022-10-17T15:02:55.536Z,82.60
2022-10-17T15:05:23.686Z,83.40
2022-10-17T15:07:51.039Z,83.90
2022-10-17T15:10:44.810Z,85.10
2022-10-17T15:13:30.396Z,86.40
2022-10-17T15:15:59.753Z,87.30
2022-10-17T15:18:26.964Z,88.90
2022-10-17T15:21:04.562Z,90.20
2022-10-17T15:23:32.944Z,90.80
2022-10-17T15:26:01.385Z,91.50
2022-10-17T15:28:28.712Z,92.30
2022-10-17T15:30:55.888Z,92.70
2022-10-17T15:33:23.456Z,93.30
2022-10-17T15:35:51.927Z,93.60
2022-10-17T15:38:19.405Z,93.90
2022-10-17T15:40:49.173Z,94.40
2022-10-17T15:43:19.777Z,94.70
2022-10-17T15:45:47.777Z,95.10
2022-10-17T15:48:23.608Z,95.20
2022-10-17T15:50:50.820Z,95.80
2022-10-17T15:53:18.005Z,95.90
2022-10-17T15:55:45.410Z,96.10
2022-10-17T15:58:17.742Z,96.10
2022-10-17T16:00:45.835Z,96.20
2022-10-17T16:03:14.423Z,96.20
2022-10-17T16:05:41.726Z,96.50
2022-10-17T16:08:08.900Z,96.90
2022-10-17T16:10:39.440Z,96.70
2022-10-17T16:13:06.473Z,96.80
2022-10-17T16:15:34.308Z,96.90
2022-10-17T16:18:04.245Z,97.00
2022-10-17T16:20:33.919Z,97.20
2022-10-17T16:23:03.394Z,97.10
2022-10-17T16:25:31.846Z,97.40
2022-10-17T16:28:00.735Z,98.00
2022-10-17T16:30:30.136Z,98.10
2022-10-17T16:32:57.577Z,98.40
2022-10-17T16:35:31.847Z,98.20
2022-10-17T16:38:02.551Z,98.40
2022-10-17T16:40:29.624Z,99.10
2022-10-17T16:42:56.745Z,99.20
2022-10-17T16:45:24.370Z,99.50
2022-10-17T16:47:53.312Z,99.90
2022-10-17T16:50:21.187Z,99.90
2022-10-17T16:52:48.615Z,99.90
2022-10-17T16:55:19.142Z,99.90
2022-10-17T16:57:49.217Z,99.90
2022-10-17T17:00:17.875Z,99.90
2022-10-17T17:02:47.681Z,99.90
2022-10-17T17:05:15.497Z,99.90
2022-10-17T17:07:42.731Z,99.90
2022-10-17T17:10:10.165Z,99.90
2022-10-17T17:12:38.102Z,99.90
2022-10-17T17:15:06.453Z,99.90
2022-10-17T17:17:48.828Z,99.90
2022-10-17T17:20:17.556Z,99.90
2022-10-17T17:22:44.676Z,99.90
2022-10-17T17:25:11.853Z,99.90
2022-10-17T17:27:39.035Z,99.90
2022-10-17T17:30:06.578Z,99.90
2022-10-17T17:32:34.970Z,99.90
2022-10-17T17:35:02.403Z,99.90
2022-10-17T17:37:30.053Z,99.90
2022-10-17T17:39:57.333Z,99.90
2022-10-17T17:42:24.480Z,99.90
2022-10-17T17:44:52.961Z,99.90
2022-10-17T17:47:20.582Z,99.90
2022-10-17T17:49:48.853Z,99.90
2022-10-17T17:52:18.477Z,99.90
2022-10-17T17:54:45.830Z,99.90
2022-10-17T17:57:13.053Z,99.90
2022-10-17T17:59:41.317Z,99.90
2022-10-17T18:02:09.996Z,99.90
2022-10-17T18:04:37.144Z,99.90
2022-10-17T18:07:04.338Z,99.90
2022-10-17T18:09:31.534Z,99.90
2022-10-17T18:11:58.653Z,99.90
2022-10-17T18:14:25.893Z,99.90
2022-10-17T18:16:53.213Z,99.90
2022-10-17T18:19:20.416Z,99.90
2022-10-17T18:21:47.547Z,99.90
2022-10-17T18:24:14.664Z,99.90
2022-10-17T18:26:41.896Z,99.60
2022-10-17T18:29:09.124Z,99.40
2022-10-17T18:31:36.421Z,99.20
2022-10-17T18:34:05.344Z,99.00
2022-10-17T18:36:34.329Z,98.80
2022-10-17T18:39:02.896Z,99.00
2022-10-17T18:41:30.774Z,98.20
2022-10-17T18:43:58.343Z,98.10
2022-10-17T18:46:31.667Z,97.70
2022-10-17T18:49:00.763Z,97.70
2022-10-17T18:51:28.782Z,98.10
2022-10-17T18:54:01.985Z,97.70
2022-10-17T18:56:29.966Z,98.30
2022-10-17T18:58:57.541Z,98.80
2022-10-17T19:01:27.530Z,99.20
2022-10-17T19:03:57.861Z,99.80
2022-10-17T19:06:32.057Z,99.90
2022-10-17T19:09:01.252Z,99.90
2022-10-17T19:11:30.359Z,99.90
2022-10-17T19:13:59.373Z,99.90
2022-10-17T19:16:33.279Z,99.90
2022-10-17T19:19:04.335Z,99.90
2022-10-17T19:21:31.505Z,99.90
2022-10-17T19:24:01.113Z,99.90
2022-10-17T19:26:30.745Z,99.90
2022-10-17T19:29:00.540Z,99.90
2022-10-17T19:31:29.896Z,99.90
2022-10-17T19:33:57.334Z,99.90
2022-10-17T19:36:30.545Z,99.90
2022-10-17T19:39:02.383Z,99.90
2022-10-17T19:41:29.671Z,99.90
2022-10-17T19:43:56.826Z,99.90
2022-10-17T19:46:27.483Z,99.90
2022-10-17T19:48:54.713Z,99.90
2022-10-17T19:51:26.546Z,99.90
2022-10-17T19:53:56.053Z,99.90
2022-10-17T19:56:24.880Z,99.90
2022-10-17T19:58:54.295Z,99.90
2022-10-17T20:01:26.106Z,99.90
2022-10-17T20:03:54.233Z,99.90
2022-10-17T20:06:22.189Z,99.90
2022-10-17T20:08:50.069Z,99.90
2022-10-17T20:11:23.386Z,99.90
2022-10-17T20:13:51.211Z,99.90
2022-10-17T20:16:21.659Z,99.90
2022-10-17T20:18:50.206Z,99.90
2022-10-17T20:21:21.132Z,99.90
2022-10-17T20:23:48.334Z,99.90
2022-10-17T20:26:26.074Z,99.90
2022-10-17T20:29:08.618Z,99.90
2022-10-17T20:31:36.271Z,99.90
2022-10-17T20:34:03.761Z,99.90
2022-10-17T20:36:31.052Z,99.90
2022-10-17T20:38:59.531Z,99.90
2022-10-17T20:41:27.173Z,99.90
2022-10-17T20:43:55.488Z,99.90
2022-10-17T20:46:36.348Z,99.90
2022-10-17T20:49:16.076Z,99.90
2022-10-17T20:51:44.132Z,99.90
2022-10-17T20:54:12.052Z,99.90
2022-10-17T20:56:39.911Z,99.90
2022-10-17T20:59:12.625Z,99.90
2022-10-17T21:01:40.250Z,99.90
2022-10-17T21:04:33.413Z,99.90
2022-10-17T21:06:54.671Z,99.90
2022-10-17T21:09:22.381Z,99.90
2022-10-17T21:11:52.762Z,99.90
2022-10-17T21:14:19.995Z,99.90
2022-10-17T21:16:47.814Z,99.90
2022-10-17T21:19:15.954Z,99.90
2022-10-17T21:21:46.288Z,99.90
2022-10-17T21:24:17.498Z,99.90
2022-10-17T21:26:46.532Z,99.90
2022-10-17T21:29:14.498Z,99.90
2022-10-17T21:31:44.146Z,99.90
2022-10-17T21:34:17.849Z,99.90
2022-10-17T21:36:45.472Z,99.90
2022-10-17T21:39:14.142Z,99.90
2022-10-17T21:41:42.398Z,99.90
2022-10-17T21:44:27.896Z,99.90
2022-10-17T21:46:56.140Z,99.90
2022-10-17T21:49:25.122Z,99.90
2022-10-17T21:51:52.960Z,99.90
2022-10-17T21:54:21.501Z,99.90
2022-10-17T21:56:49.036Z,99.90
2022-10-17T21:59:16.650Z,99.90
2022-10-17T22:01:45.812Z,99.90
2022-10-17T22:04:16.051Z,99.90
2022-10-17T22:06:45.635Z,99.90
2022-10-17T22:09:19.630Z,99.90
2022-10-17T22:11:49.048Z,99.90
2022-10-17T22:14:19.734Z,99.90
2022-10-17T22:16:47.883Z,99.90
2022-10-17T22:19:18.384Z,99.90
2022-10-17T22:21:45.628Z,99.90
2022-10-17T22:24:14.847Z,99.90
2022-10-17T22:26:42.599Z,99.90
2022-10-17T22:29:10.726Z,99.90
2022-10-17T22:31:38.706Z,99.90
2022-10-17T22:34:07.676Z,99.90
2022-10-17T22:36:36.060Z,99.90
2022-10-17T22:39:04.383Z,99.90
2022-10-17T22:41:31.845Z,99.90
2022-10-17T22:43:59.270Z,99.90
2022-10-17T22:46:26.700Z,99.90
2022-10-17T22:48:53.918Z,99.90
2022-10-17T22:51:21.151Z,99.90
2022-10-17T22:53:48.497Z,99.90
2022-10-17T22:56:20.377Z,99.90
2022-10-17T22:58:48.096Z,99.90
2022-10-17T23:01:18.825Z,99.90
2022-10-17T23:03:46.079Z,99.90
2022-10-17T23:06:13.745Z,99.90
2022-10-17T23:08:41.382Z,99.90
2022-10-17T23:11:09.076Z,99.90
2022-10-17T23:13:36.958Z,99.90
2022-10-17T23:16:04.683Z,99.90
2022-10-17T23:21:04.928Z,99.90
2022-10-17T23:23:32.175Z,99.90
2022-10-17T23:26:07.699Z,99.90
2022-10-17T23:28:35.903Z,99.90
2022-10-17T23:31:17.915Z,99.90
2022-10-17T23:33:47.550Z,99.90
2022-10-17T23:36:18.552Z,99.90
2022-10-17T23:38:46.948Z,99.90
2022-10-17T23:41:15.175Z,99.90
2022-10-17T23:43:43.207Z,99.90
2022-10-17T23:46:10.871Z,99.90
2022-10-17T23:48:38.750Z,99.90
2022-10-17T23:51:07.149Z,99.90
2022-10-17T23:53:34.741Z,99.90
2022-10-17T23:56:02.052Z,99.90
2022-10-17T23:58:29.327Z,99.90
